Time;durP1;ratioP1;P1;durP2;ratioP2;P2;SDS_P1;SDS_P2;PMS_P1;PMS_P2;Temp;Humidity;BMP_temperature;BMP_pressure;BME280_temperature;BME280_humidity;BME280_pressure;Samples;Min_cycle;Max_cycle;Signal;HPM_P1;HPM_P2
2021/06/08 00:02:32;;;;;;;44.70;33.13;;;16.60;75.70;;;;;;6183775;23;20099;-65
2021/06/08 00:05:22;;;;;;;46.65;31.27;;;16.60;75.80;;;;;;6203110;23;20024;-65
2021/06/08 00:08:10;;;;;;;45.33;32.00;;;16.70;75.80;;;;;;6208438;23;20071;-64
2021/06/08 00:10:58;;;;;;;48.05;32.33;;;16.70;75.80;;;;;;6185484;23;20100;-64
2021/06/08 00:13:46;;;;;;;42.58;30.90;;;16.70;75.50;;;;;;6206191;23;20028;-63
2021/06/08 00:16:34;;;;;;;44.60;31.60;;;16.70;75.70;;;;;;6183721;23;20047;-64
2021/06/08 00:19:21;;;;;;;45.85;31.25;;;16.70;75.90;;;;;;6208625;23;20026;-64
2021/06/08 00:22:11;;;;;;;47.55;34.70;;;16.70;75.90;;;;;;6205671;23;20465;-65
2021/06/08 00:24:59;;;;;;;44.40;31.88;;;16.70;75.80;;;;;;6203994;23;20032;-65
2021/06/08 00:27:47;;;;;;;46.97;32.83;;;16.80;76.20;;;;;;6208127;23;20123;-65
2021/06/08 00:30:36;;;;;;;48.05;32.63;;;16.80;76.20;;;;;;6203696;23;20048;-65
2021/06/08 00:33:24;;;;;;;43.05;32.25;;;16.70;75.80;;;;;;6186774;23;20029;-65
2021/06/08 00:36:12;;;;;;;39.42;30.15;;;16.70;76.10;;;;;;6203228;23;20401;-65
2021/06/08 00:39:01;;;;;;;40.97;31.55;;;16.60;76.10;;;;;;6206176;23;20021;-64
2021/06/08 00:41:49;;;;;;;45.83;31.48;;;16.60;76.20;;;;;;6205735;23;20020;-65
2021/06/08 00:44:37;;;;;;;45.45;31.25;;;16.70;76.50;;;;;;6205359;23;20035;-66
2021/06/08 00:47:25;;;;;;;45.83;32.10;;;16.70;76.30;;;;;;6207537;23;20350;-64
2021/06/08 00:50:14;;;;;;;45.80;32.90;;;16.60;76.10;;;;;;6164013;23;20048;-64
2021/06/08 00:53:01;;;;;;;45.83;32.72;;;16.70;76.30;;;;;;6185362;23;20028;-64
2021/06/08 00:55:52;;;;;;;51.20;33.42;;;16.60;76.00;;;;;;6181743;23;20106;-64
2021/06/08 00:58:40;;;;;;;44.60;32.38;;;16.60;76.10;;;;;;6207709;23;20098;-65
2021/06/08 01:01:28;;;;;;;43.95;30.75;;;16.50;75.90;;;;;;6206345;23;20071;-65
2021/06/08 01:04:16;;;;;;;42.60;31.02;;;16.50;75.90;;;;;;6206803;23;20034;-65
2021/06/08 01:07:04;;;;;;;44.67;31.60;;;16.50;76.10;;;;;;6206073;23;20120;-66
2021/06/08 01:09:55;;;;;;;45.30;32.05;;;16.50;76.90;;;;;;6208343;23;20020;-64
2021/06/08 01:12:45;;;;;;;48.60;33.60;;;16.50;76.40;;;;;;6185807;23;20142;-64
2021/06/08 01:15:33;;;;;;;45.72;33.28;;;16.50;76.40;;;;;;6204737;23;20358;-64
2021/06/08 01:18:22;;;;;;;48.40;33.53;;;16.40;76.40;;;;;;6206089;23;20033;-64
2021/06/08 01:21:13;;;;;;;45.38;32.58;;;16.40;76.60;;;;;;6205833;23;20075;-65
2021/06/08 01:24:02;;;;;;;45.20;33.00;;;16.30;76.70;;;;;;6170370;23;20115;-64
2021/06/08 01:26:50;;;;;;;43.08;31.70;;;16.30;76.90;;;;;;6206084;23;20027;-65
2021/06/08 01:29:39;;;;;;;45.40;32.75;;;16.30;76.90;;;;;;6184358;23;20087;-64
2021/06/08 01:32:32;;;;;;;50.15;35.90;;;16.30;76.90;;;;;;6207556;23;20135;-64
2021/06/08 01:35:21;;;;;;;54.22;35.00;;;16.30;77.00;;;;;;6206224;23;20114;-64
2021/06/08 01:38:11;;;;;;;49.72;35.25;;;16.20;77.00;;;;;;6210298;23;20057;-64
2021/06/08 01:40:59;;;;;;;60.47;36.45;;;16.30;77.20;;;;;;6208438;23;20099;-65
2021/06/08 01:43:48;;;;;;;54.33;34.45;;;16.20;77.60;;;;;;6207272;23;20024;-64
2021/06/08 01:46:36;;;;;;;52.28;35.30;;;16.20;78.10;;;;;;6208095;23;20099;-65
2021/06/08 01:49:25;;;;;;;54.50;36.35;;;16.20;78.30;;;;;;6188414;23;20480;-64
2021/06/08 01:52:18;;;;;;;54.17;35.85;;;16.20;78.70;;;;;;6208686;23;20115;-64
2021/06/08 01:55:15;;;;;;;54.83;37.00;;;16.20;78.70;;;;;;6206812;23;20127;-64
2021/06/08 01:58:08;;;;;;;51.38;35.40;;;16.20;78.60;;;;;;6208279;23;20473;-63
2021/06/08 02:01:00;;;;;;;58.95;37.00;;;16.10;78.50;;;;;;6207880;23;20441;-64
2021/06/08 02:03:55;;;;;;;50.95;33.95;;;16.20;78.80;;;;;;6185758;23;20020;-63
2021/06/08 02:06:48;;;;;;;50.03;35.20;;;16.10;78.80;;;;;;6205830;23;20096;-64
2021/06/08 02:09:42;;;;;;;48.33;34.67;;;16.20;78.90;;;;;;6210736;23;20025;-65
2021/06/08 02:12:31;;;;;;;53.57;36.27;;;16.20;78.80;;;;;;6208559;23;20032;-65
2021/06/08 02:15:21;;;;;;;53.92;34.78;;;16.10;78.70;;;;;;6184077;23;20334;-65
2021/06/08 02:18:11;;;;;;;50.90;35.20;;;16.10;78.80;;;;;;6209152;23;20402;-64
2021/06/08 02:21:01;;;;;;;54.58;35.75;;;16.10;78.80;;;;;;6206867;23;20024;-63
2021/06/08 02:23:52;;;;;;;50.28;36.38;;;16.10;78.80;;;;;;6207439;23;20031;-63
2021/06/08 02:26:42;;;;;;;55.58;37.53;;;16.10;78.80;;;;;;6207089;23;20021;-64
2021/06/08 02:29:32;;;;;;;50.83;36.95;;;16.10;78.80;;;;;;6209325;23;20021;-64
2021/06/08 02:32:21;;;;;;;54.30;36.55;;;16.10;78.90;;;;;;6207976;23;20052;-64
2021/06/08 02:35:11;;;;;;;55.40;36.90;;;16.10;78.90;;;;;;6205194;23;20027;-65
2021/06/08 02:38:16;;;;;;;52.03;34.88;;;16.10;78.80;;;;;;6187197;23;20584;-65
2021/06/08 02:41:06;;;;;;;50.70;35.67;;;16.00;78.80;;;;;;6183413;23;20529;-65
2021/06/08 02:43:55;;;;;;;51.50;35.22;;;16.00;78.80;;;;;;6207439;23;20021;-64
2021/06/08 02:46:44;;;;;;;52.35;36.45;;;16.10;79.50;;;;;;6207281;23;20060;-64
2021/06/08 02:49:33;;;;;;;54.97;35.00;;;16.10;78.90;;;;;;6209769;23;20372;-64
2021/06/08 02:52:23;;;;;;;56.80;37.92;;;16.10;79.00;;;;;;6207848;23;20110;-64
2021/06/08 02:55:12;;;;;;;57.88;39.63;;;16.10;79.00;;;;;;6207231;23;20031;-64
2021/06/08 02:58:01;;;;;;;60.63;38.38;;;16.20;79.30;;;;;;6208830;23;20091;-65
2021/06/08 03:00:49;;;;;;;58.47;38.75;;;16.20;79.30;;;;;;6208527;23;20104;-65
2021/06/08 03:03:41;;;;;;;55.00;37.83;;;16.20;79.50;;;;;;6207973;23;20090;-63
2021/06/08 03:06:35;;;;;;;53.78;37.60;;;16.10;79.30;;;;;;6203836;23;20017;-64
2021/06/08 03:09:31;;;;;;;54.75;38.13;;;16.10;79.20;;;;;;6209084;23;20119;-64
2021/06/08 03:12:21;;;;;;;61.80;38.83;;;16.10;79.10;;;;;;6208181;23;20465;-64
2021/06/08 03:15:11;;;;;;;57.35;36.65;;;16.10;79.10;;;;;;6204726;23;20031;-64
2021/06/08 03:17:59;;;;;;;51.13;36.95;;;16.10;79.10;;;;;;6206889;23;20017;-63
2021/06/08 03:20:55;;;;;;;55.80;37.72;;;16.10;79.10;;;;;;6204625;23;20032;-64
2021/06/08 03:23:49;;;;;;;49.78;34.72;;;16.00;79.10;;;;;;6207129;23;20099;-65
2021/06/08 03:26:38;;;;;;;54.43;37.63;;;16.00;79.10;;;;;;6206234;23;20031;-64
2021/06/08 03:29:30;;;;;;;53.47;36.30;;;16.10;79.10;;;;;;6208133;23;20086;-64
2021/06/08 03:32:19;;;;;;;51.10;35.30;;;16.00;79.00;;;;;;6207567;23;20521;-65
2021/06/08 03:35:10;;;;;;;53.60;37.35;;;16.00;79.00;;;;;;6203189;23;20024;-64
2021/06/08 03:38:00;;;;;;;53.47;35.08;;;16.00;79.10;;;;;;6186288;23;20098;-64
2021/06/08 03:40:49;;;;;;;57.40;35.88;;;15.90;79.10;;;;;;6207087;23;20021;-64
2021/06/08 03:43:38;;;;;;;53.50;37.22;;;16.00;79.10;;;;;;6208220;23;20048;-64
2021/06/08 03:46:26;;;;;;;54.10;34.97;;;16.00;79.10;;;;;;6206709;23;20064;-64
2021/06/08 03:49:17;;;;;;;53.08;36.78;;;16.00;79.20;;;;;;6206723;23;20103;-63
2021/06/08 03:52:05;;;;;;;50.03;35.75;;;15.90;79.30;;;;;;6185741;23;20055;-64
2021/06/08 03:54:54;;;;;;;55.70;37.38;;;16.00;79.50;;;;;;6205188;23;20119;-64
2021/06/08 03:57:46;;;;;;;53.72;37.20;;;16.00;79.50;;;;;;6208134;23;20486;-63
2021/06/08 04:00:36;;;;;;;56.92;38.28;;;15.90;79.40;;;;;;6208818;23;20366;-64
2021/06/08 04:03:24;;;;;;;55.83;38.63;;;15.90;79.40;;;;;;6207478;23;20124;-64
2021/06/08 04:06:14;;;;;;;53.65;36.88;;;16.00;79.50;;;;;;6207215;23;20421;-64
2021/06/08 04:09:04;;;;;;;56.22;37.55;;;16.00;79.50;;;;;;6208826;23;20025;-66
2021/06/08 04:11:53;;;;;;;54.42;37.53;;;16.00;79.50;;;;;;6206354;23;20024;-64
2021/06/08 04:14:43;;;;;;;53.78;36.42;;;16.00;79.50;;;;;;6205841;23;20059;-64
2021/06/08 04:17:32;;;;;;;52.10;36.28;;;16.00;79.50;;;;;;6162670;23;20210;-64
2021/06/08 04:20:20;;;;;;;54.83;37.33;;;16.00;79.50;;;;;;6207998;23;20052;-64
2021/06/08 04:23:08;;;;;;;57.85;36.63;;;16.00;79.50;;;;;;6206560;23;20021;-65
2021/06/08 04:25:57;;;;;;;53.63;37.78;;;16.10;79.60;;;;;;6205004;23;20024;-65
2021/06/08 04:28:46;;;;;;;59.83;37.88;;;16.10;79.60;;;;;;6209056;23;20025;-64
2021/06/08 04:31:35;;;;;;;58.22;37.35;;;16.20;79.70;;;;;;6207435;23;20052;-65
2021/06/08 04:34:23;;;;;;;58.35;37.03;;;16.20;79.70;;;;;;6206447;23;20031;-65
2021/06/08 04:37:11;;;;;;;51.15;35.38;;;16.20;79.70;;;;;;6205939;23;20143;-63
2021/06/08 04:39:59;;;;;;;48.05;34.75;;;16.30;79.80;;;;;;6206838;23;20056;-63
2021/06/08 04:42:49;;;;;;;52.25;34.67;;;16.20;79.70;;;;;;6183638;23;20028;-64
2021/06/08 04:45:38;;;;;;;44.00;33.60;;;16.30;79.80;;;;;;6204705;23;20025;-64
2021/06/08 04:48:26;;;;;;;43.38;33.05;;;16.30;79.80;;;;;;6207110;23;20021;-64
2021/06/08 04:51:14;;;;;;;44.72;32.35;;;16.40;79.80;;;;;;6206391;23;20543;-64
2021/06/08 04:54:03;;;;;;;42.72;31.88;;;16.40;79.30;;;;;;6207487;23;20454;-64
2021/06/08 04:56:51;;;;;;;46.55;33.45;;;16.40;79.00;;;;;;6206742;23;20099;-65
2021/06/08 04:59:52;;;;;;;49.42;32.88;;;16.40;78.80;;;;;;6209090;23;20025;-64
2021/06/08 05:02:49;;;;;;;43.83;32.33;;;16.50;78.90;;;;;;6207129;23;20099;-65
2021/06/08 05:05:40;;;;;;;40.15;31.45;;;16.50;78.40;;;;;;6205945;23;20484;-64
2021/06/08 05:08:34;;;;;;;40.42;30.90;;;16.60;77.20;;;;;;6209201;23;20024;-65
2021/06/08 05:11:24;;;;;;;46.10;32.03;;;16.70;77.80;;;;;;6207379;23;20029;-63
2021/06/08 05:14:14;;;;;;;43.35;32.03;;;16.70;76.10;;;;;;6208004;23;20048;-63
2021/06/08 05:17:03;;;;;;;39.72;30.60;;;16.80;76.60;;;;;;6207408;23;20025;-65
2021/06/08 05:19:54;;;;;;;46.00;31.25;;;16.70;76.00;;;;;;6209677;23;20516;-65
2021/06/08 05:22:42;;;;;;;43.05;31.25;;;16.80;74.90;;;;;;6208860;23;20099;-63
2021/06/08 05:25:30;;;;;;;45.95;31.45;;;16.80;74.70;;;;;;6183381;23;20033;-63
2021/06/08 05:28:19;;;;;;;43.20;31.38;;;16.80;74.10;;;;;;6209174;23;20453;-63
2021/06/08 05:31:07;;;;;;;39.75;29.92;;;16.70;73.50;;;;;;6206786;23;20032;-63
2021/06/08 05:33:57;;;;;;;42.60;31.58;;;16.80;73.70;;;;;;6207113;23;20020;-64
2021/06/08 05:36:47;;;;;;;41.30;31.85;;;16.70;73.40;;;;;;6207390;23;20097;-64
2021/06/08 05:39:36;;;;;;;40.88;30.98;;;16.80;73.20;;;;;;6209470;23;20067;-64
2021/06/08 05:42:24;;;;;;;36.80;29.33;;;16.80;72.20;;;;;;6207960;23;20020;-64
2021/06/08 05:45:13;;;;;;;41.35;31.70;;;16.80;71.80;;;;;;6206962;23;20020;-64
2021/06/08 05:48:01;;;;;;;36.75;29.23;;;16.90;72.30;;;;;;6208825;23;20051;-64
2021/06/08 05:50:53;;;;;;;38.58;31.02;;;16.80;72.10;;;;;;6207702;23;20027;-64
2021/06/08 05:53:45;;;;;;;36.47;29.13;;;16.90;72.20;;;;;;6208211;23;20175;-64
2021/06/08 05:56:34;;;;;;;41.35;30.60;;;16.90;71.20;;;;;;6207406;23;20031;-64
2021/06/08 05:59:23;;;;;;;39.28;29.45;;;16.90;71.10;;;;;;6209413;23;20472;-64
2021/06/08 06:02:13;;;;;;;38.85;30.40;;;16.80;71.60;;;;;;6205887;23;20028;-63
2021/06/08 06:05:02;;;;;;;38.67;29.13;;;16.90;72.00;;;;;;6204826;23;20028;-63
2021/06/08 06:07:50;;;;;;;35.45;28.92;;;16.90;71.30;;;;;;6209429;23;20099;-64
2021/06/08 06:10:41;;;;;;;35.90;28.55;;;16.90;70.90;;;;;;6207676;23;20017;-63
2021/06/08 06:13:33;;;;;;;34.97;27.02;;;16.90;69.80;;;;;;6207697;23;20029;-64
2021/06/08 06:16:22;;;;;;;36.55;28.45;;;16.90;69.60;;;;;;6207012;23;20048;-63
2021/06/08 06:19:11;;;;;;;33.90;28.02;;;16.90;70.10;;;;;;6209083;23;20028;-64
2021/06/08 06:21:59;;;;;;;40.00;27.13;;;17.00;67.60;;;;;;6207560;23;20052;-64
2021/06/08 06:24:47;;;;;;;36.92;27.90;;;17.00;68.20;;;;;;6205920;23;20056;-62
2021/06/08 06:27:38;;;;;;;34.53;27.45;;;17.10;69.40;;;;;;6185765;23;20047;-63
2021/06/08 06:30:27;;;;;;;35.30;27.73;;;17.10;67.20;;;;;;6208130;23;20056;-63
2021/06/08 06:33:15;;;;;;;34.30;27.40;;;17.20;68.30;;;;;;6206448;23;20052;-64
2021/06/08 06:36:05;;;;;;;35.03;27.13;;;17.20;68.40;;;;;;6207266;23;20477;-64
2021/06/08 06:38:55;;;;;;;38.47;27.05;;;17.20;67.40;;;;;;6209036;23;20102;-64
2021/06/08 06:41:46;;;;;;;34.05;27.65;;;17.10;66.40;;;;;;6184312;23;20113;-63
2021/06/08 06:44:37;;;;;;;35.33;27.92;;;17.20;68.30;;;;;;6184775;23;20099;-63
2021/06/08 06:47:26;;;;;;;39.08;29.48;;;17.30;67.20;;;;;;6208977;23;20203;-64
2021/06/08 06:50:14;;;;;;;38.30;28.75;;;17.20;67.70;;;;;;6208704;23;20095;-63
2021/06/08 06:53:03;;;;;;;36.45;27.35;;;17.30;67.70;;;;;;6206258;23;20162;-63
2021/06/08 06:55:52;;;;;;;35.28;27.85;;;17.40;65.80;;;;;;6206459;23;20027;-63
2021/06/08 06:58:42;;;;;;;34.05;25.98;;;17.40;67.80;;;;;;6209302;23;20031;-64
2021/06/08 07:01:32;;;;;;;33.20;27.45;;;17.40;65.70;;;;;;6184667;23;20100;-64
2021/06/08 07:04:22;;;;;;;36.58;27.88;;;17.50;65.40;;;;;;6207382;23;20563;-63
2021/06/08 07:07:18;;;;;;;32.40;26.90;;;17.40;62.90;;;;;;6208156;23;20091;-66
2021/06/08 07:10:10;;;;;;;34.15;26.45;;;17.50;64.50;;;;;;6208520;23;20028;-63
2021/06/08 07:13:03;;;;;;;33.42;26.08;;;17.60;62.10;;;;;;6206575;23;20104;-63
2021/06/08 07:15:53;;;;;;;31.52;24.52;;;17.50;62.50;;;;;;6206092;23;20095;-63
2021/06/08 07:18:47;;;;;;;31.52;25.05;;;17.50;62.00;;;;;;6207788;23;20030;-64
2021/06/08 07:21:35;;;;;;;31.23;24.90;;;17.60;63.00;;;;;;6206967;23;20091;-63
2021/06/08 07:24:23;;;;;;;32.40;25.10;;;17.70;63.30;;;;;;6205394;23;20254;-64
2021/06/08 07:27:13;;;;;;;34.58;25.17;;;17.90;60.70;;;;;;6207427;23;20758;-64
2021/06/08 07:30:01;;;;;;;32.50;26.27;;;17.90;60.10;;;;;;6208337;23;20016;-64
2021/06/08 07:33:00;;;;;;;33.40;26.85;;;17.90;58.20;;;;;;6206165;23;20031;-63
2021/06/08 07:35:54;;;;;;;32.45;26.67;;;17.90;55.40;;;;;;6197400;23;20524;-64
2021/06/08 07:38:52;;;;;;;32.72;27.48;;;18.00;57.00;;;;;;6207398;23;20103;-64
2021/06/08 07:41:43;;;;;;;30.75;25.60;;;18.20;55.30;;;;;;6206190;23;20028;-64
2021/06/08 07:44:34;;;;;;;31.70;26.08;;;18.30;55.70;;;;;;6206620;23;20106;-64
2021/06/08 07:47:25;;;;;;;32.10;25.70;;;18.20;53.70;;;;;;6184910;23;20035;-63
2021/06/08 07:50:14;;;;;;;33.70;25.35;;;18.10;52.60;;;;;;6185229;23;20063;-64
2021/06/08 07:53:04;;;;;;;31.20;24.88;;;18.20;52.70;;;;;;6207757;23;20020;-64
2021/06/08 07:55:52;;;;;;;32.88;26.27;;;18.30;52.80;;;;;;6181753;23;20062;-63
2021/06/08 07:58:40;;;;;;;32.20;26.00;;;18.30;50.00;;;;;;6208630;23;20048;-64
2021/06/08 08:01:29;;;;;;;33.33;26.23;;;18.40;50.30;;;;;;6205531;23;20020;-65
2021/06/08 08:04:19;;;;;;;34.58;27.80;;;18.50;50.30;;;;;;6207338;23;20028;-65
2021/06/08 08:07:07;;;;;;;37.75;27.90;;;18.50;45.80;;;;;;6205890;23;20106;-64
2021/06/08 08:09:57;;;;;;;34.92;25.98;;;18.50;44.50;;;;;;6208784;23;20586;-64
2021/06/08 08:12:47;;;;;;;35.13;27.52;;;18.60;47.40;;;;;;6205917;23;20119;-64
2021/06/08 08:15:36;;;;;;;32.42;26.45;;;18.70;42.30;;;;;;6202372;23;20028;-64
2021/06/08 08:18:24;;;;;;;31.30;27.38;;;18.70;44.80;;;;;;6207320;23;20099;-64
2021/06/08 08:21:14;;;;;;;33.28;27.10;;;18.80;42.80;;;;;;6207368;23;20052;-64
2021/06/08 08:24:02;;;;;;;34.15;27.27;;;18.80;40.10;;;;;;6208867;23;20020;-64
2021/06/08 08:26:52;;;;;;;33.00;27.08;;;18.90;40.70;;;;;;6204851;23;20540;-64
2021/06/08 08:29:41;;;;;;;41.67;30.48;;;18.90;36.30;;;;;;6207406;23;20027;-64
2021/06/08 08:32:29;;;;;;;33.95;27.00;;;19.10;33.70;;;;;;6205685;23;20027;-64
2021/06/08 08:35:17;;;;;;;29.92;26.05;;;19.30;34.40;;;;;;6205023;23;20024;-64
2021/06/08 08:38:07;;;;;;;34.60;27.08;;;19.40;31.20;;;;;;6205200;23;20119;-64
2021/06/08 08:40:56;;;;;;;33.53;27.55;;;19.30;32.30;;;;;;6206611;23;20084;-64
2021/06/08 08:44:00;;;;;;;32.72;26.95;;;19.20;33.90;;;;;;6186995;23;20110;-65
2021/06/08 08:46:48;;;;;;;31.15;26.23;;;19.20;32.70;;;;;;6206446;23;20110;-64
2021/06/08 08:49:36;;;;;;;32.28;26.65;;;19.40;30.50;;;;;;6210838;23;20031;-64
2021/06/08 08:52:25;;;;;;;30.30;26.25;;;19.10;29.30;;;;;;6207797;23;20091;-64
2021/06/08 08:55:13;;;;;;;32.17;26.83;;;19.40;32.90;;;;;;6205556;23;20024;-64
2021/06/08 08:58:06;;;;;;;32.38;26.10;;;19.40;31.20;;;;;;6207454;23;20458;-65
2021/06/08 09:00:57;;;;;;;32.08;27.13;;;19.50;31.10;;;;;;6207666;23;20075;-64
2021/06/08 09:03:46;;;;;;;31.95;25.25;;;19.70;31.70;;;;;;6209935;23;20104;-65
2021/06/08 09:06:36;;;;;;;33.55;26.92;;;19.70;29.10;;;;;;6206610;23;20028;-64
2021/06/08 09:09:24;;;;;;;32.85;26.20;;;19.50;29.10;;;;;;6209411;23;20055;-64
2021/06/08 09:12:12;;;;;;;29.75;25.45;;;19.40;29.90;;;;;;6209543;23;20110;-65
2021/06/08 09:15:00;;;;;;;33.10;27.70;;;19.20;34.10;;;;;;6206622;23;20530;-65
2021/06/08 09:17:53;;;;;;;34.47;27.60;;;19.20;32.20;;;;;;6209209;23;20101;-63
2021/06/08 09:20:41;;;;;;;29.95;26.52;;;19.30;32.40;;;;;;6208359;23;20457;-64
2021/06/08 09:23:29;;;;;;;31.83;27.25;;;19.10;32.00;;;;;;6208906;23;20095;-64
2021/06/08 09:26:18;;;;;;;32.65;26.20;;;19.70;30.00;;;;;;6207319;23;20055;-65
2021/06/08 09:29:06;;;;;;;31.50;26.63;;;19.80;26.80;;;;;;6208411;23;20465;-64
2021/06/08 09:32:12;;;;;;;31.33;26.77;;;20.10;24.70;;;;;;6208854;23;20098;-64
2021/06/08 09:35:03;;;;;;;29.88;25.83;;;20.10;24.30;;;;;;6207325;23;20031;-64
2021/06/08 09:37:51;;;;;;;33.38;26.85;;;20.20;22.50;;;;;;6209149;23;20361;-64
2021/06/08 09:40:41;;;;;;;31.20;26.85;;;20.20;22.70;;;;;;6208472;23;20052;-64
2021/06/08 09:43:29;;;;;;;31.00;26.33;;;20.20;22.00;;;;;;6209160;23;20024;-63
2021/06/08 09:46:18;;;;;;;33.60;26.02;;;20.70;22.40;;;;;;6182977;23;20523;-64
2021/06/08 09:49:06;;;;;;;30.55;25.90;;;20.60;20.40;;;;;;6208912;23;20401;-64
2021/06/08 09:51:58;;;;;;;34.60;28.25;;;20.40;18.10;;;;;;6204750;23;20017;-64
2021/06/08 09:54:50;;;;;;;32.75;26.35;;;21.00;18.90;;;;;;6206846;23;20099;-64
2021/06/08 09:57:37;;;;;;;35.05;26.63;;;20.80;14.10;;;;;;6208929;23;20522;-64
2021/06/08 10:00:26;;;;;;;31.58;26.75;;;20.50;17.30;;;;;;6207910;23;20024;-63
2021/06/08 10:03:35;;;;;;;30.58;25.77;;;21.40;16.80;;;;;;6208736;23;20031;-64
2021/06/08 10:06:25;;;;;;;28.90;25.17;;;22.10;12.90;;;;;;6205755;23;20024;-65
2021/06/08 10:09:15;;;;;;;29.67;25.92;;;21.70;10.00;;;;;;6205242;23;20099;-64
2021/06/08 10:12:04;;;;;;;28.55;25.10;;;21.40;13.10;;;;;;6207492;23;20020;-64
2021/06/08 10:14:52;;;;;;;26.65;22.92;;;21.70;12.00;;;;;;6183815;23;20466;-64
2021/06/08 10:17:40;;;;;;;26.70;23.80;;;22.40;8.10;;;;;;6208341;23;20110;-64
2021/06/08 10:20:30;;;;;;;28.65;25.17;;;21.90;12.20;;;;;;6207222;23;20091;-64
2021/06/08 10:23:22;;;;;;;28.33;25.23;;;22.30;10.10;;;;;;6209024;23;20091;-64
2021/06/08 10:26:12;;;;;;;26.60;23.30;;;21.40;14.90;;;;;;6206277;23;20071;-65
2021/06/08 10:29:04;;;;;;;26.95;23.90;;;21.90;11.30;;;;;;6206574;23;20029;-65
2021/06/08 10:31:54;;;;;;;29.40;25.35;;;21.80;11.90;;;;;;6206558;23;20021;-64
2021/06/08 10:35:00;;;;;;;29.10;26.00;;;21.50;11.90;;;;;;6206054;23;20735;-64
2021/06/08 10:37:48;;;;;;;26.85;24.00;;;21.40;11.90;;;;;;6208200;23;20481;-63
2021/06/08 10:40:40;;;;;;;28.27;25.27;;;21.60;10.80;;;;;;6184696;23;20040;-64
2021/06/08 10:43:37;;;;;;;29.55;25.10;;;22.00;11.70;;;;;;6208515;23;20028;-65
2021/06/08 10:46:29;;;;;;;26.42;23.63;;;21.90;8.40;;;;;;6206399;23;20453;-64
2021/06/08 10:49:35;;;;;;;28.17;23.90;;;21.80;9.60;;;;;;6208278;23;20450;-64
2021/06/08 10:52:25;;;;;;;30.25;24.40;;;21.90;9.30;;;;;;6207387;23;20079;-64
2021/06/08 10:55:13;;;;;;;26.52;23.05;;;22.20;8.70;;;;;;6204415;23;20017;-64
2021/06/08 10:58:03;;;;;;;26.77;23.58;;;21.80;8.60;;;;;;6184436;23;20025;-64
2021/06/08 11:00:52;;;;;;;25.00;22.40;;;21.90;7.20;;;;;;6205487;23;20031;-64
2021/06/08 11:03:55;;;;;;;27.45;23.55;;;22.00;9.20;;;;;;6207088;23;20109;-65
2021/06/08 11:06:48;;;;;;;26.40;22.48;;;22.10;7.50;;;;;;6206465;23;20031;-65
2021/06/08 11:09:37;;;;;;;27.63;23.30;;;22.30;5.20;;;;;;6207643;23;20036;-63
2021/06/08 11:12:26;;;;;;;26.00;23.30;;;22.50;5.80;;;;;;6184407;23;20091;-64
2021/06/08 11:15:21;;;;;;;25.40;22.10;;;22.40;6.50;;;;;;6204817;23;20577;-63
2021/06/08 11:18:39;;;;;;;25.27;22.55;;;22.60;6.90;;;;;;6207790;23;20110;-65
2021/06/08 11:21:29;;;;;;;25.23;22.63;;;22.20;5.90;;;;;;6206702;23;20027;-64
2021/06/08 11:24:36;;;;;;;26.20;22.33;;;22.30;7.10;;;;;;6208675;23;20056;-65
2021/06/08 11:27:53;;;;;;;25.25;22.65;;;22.60;5.10;;;;;;6186457;23;20024;-64
2021/06/08 11:30:54;;;;;;;28.23;21.73;;;21.90;8.40;;;;;;6206957;23;20023;-65
2021/06/08 11:33:43;;;;;;;23.65;21.17;;;21.80;8.40;;;;;;6186051;23;20020;-64
2021/06/08 11:36:34;;;;;;;24.33;21.88;;;22.50;7.00;;;;;;6182630;23;20028;-66
2021/06/08 11:39:29;;;;;;;22.98;20.48;;;22.60;4.60;;;;;;6207962;23;20020;-65
2021/06/08 11:42:33;;;;;;;;;;;22.30;4.20;;;;;;6178545;23;20484;-66
2021/06/08 11:45:32;;;;;;;22.05;19.83;;;22.90;3.10;;;;;;6197637;23;20398;-66
2021/06/08 11:48:30;;;;;;;25.77;21.40;;;22.90;3.00;;;;;;6204243;23;20028;-65
2021/06/08 11:51:38;;;;;;;22.23;19.95;;;22.70;4.00;;;;;;6204897;23;20334;-66
2021/06/08 11:54:44;;;;;;;23.77;20.13;;;23.00;3.30;;;;;;6202648;23;20048;-65
2021/06/08 11:57:34;;;;;;;21.30;19.17;;;22.80;2.80;;;;;;6208073;23;20139;-65
2021/06/08 12:00:44;;;;;;;22.63;20.23;;;22.50;3.70;;;;;;6182468;23;20043;-63
2021/06/08 12:03:34;;;;;;;20.92;18.65;;;22.20;4.00;;;;;;6205842;23;20032;-64
2021/06/08 12:07:02;;;;;;;22.35;19.95;;;23.00;3.10;;;;;;6199874;23;20107;-65
2021/06/08 12:09:51;;;;;;;22.90;20.48;;;23.10;1.50;;;;;;6184090;23;20024;-64
2021/06/08 12:12:49;;;;;;;21.52;18.55;;;22.90;2.00;;;;;;6182807;23;20024;-65
2021/06/08 12:15:41;;;;;;;21.80;18.90;;;22.90;1.80;;;;;;6200135;23;20028;-66
2021/06/08 12:18:33;;;;;;;22.95;20.55;;;22.70;2.80;;;;;;6204843;23;20020;-64
2021/06/08 12:21:32;;;;;;;24.15;21.17;;;23.00;2.10;;;;;;6204168;23;20401;-64
2021/06/08 12:24:20;;;;;;;25.85;19.88;;;22.80;1.30;;;;;;6204741;23;20432;-64
2021/06/08 12:27:08;;;;;;;23.00;20.42;;;23.10;1.30;;;;;;6207621;23;20535;-64
2021/06/08 12:29:59;;;;;;;23.15;20.75;;;23.00;1.50;;;;;;6207921;23;20024;-64
2021/06/08 12:32:56;;;;;;;21.77;19.05;;;23.00;3.00;;;;;;6203613;23;20091;-66
2021/06/08 12:35:45;;;;;;;20.42;18.27;;;23.20;1.60;;;;;;6200272;23;20430;-64
2021/06/08 12:38:35;;;;;;;23.70;19.25;;;23.00;1.00;;;;;;6185165;23;20552;-64
2021/06/08 12:41:26;;;;;;;21.90;19.65;;;22.80;1.00;;;;;;6202457;23;20464;-64
2021/06/08 12:44:25;;;;;;;19.58;17.52;;;23.10;1.00;;;;;;6181038;23;20575;-64
2021/06/08 12:47:13;;;;;;;22.42;17.38;;;23.20;1.00;;;;;;6204953;23;20031;-65
2021/06/08 12:50:08;;;;;;;20.70;18.10;;;23.30;1.00;;;;;;6183660;23;20505;-65
2021/06/08 12:52:58;;;;;;;22.63;17.85;;;23.30;1.00;;;;;;6206552;23;20020;-65
2021/06/08 12:55:49;;;;;;;20.27;18.05;;;23.70;1.00;;;;;;6199196;23;20448;-65
2021/06/08 12:58:52;;;;;;;21.90;19.58;;;23.60;1.00;;;;;;6207351;23;20441;-64
2021/06/08 13:01:40;;;;;;;22.17;18.80;;;23.10;1.00;;;;;;6179115;23;20024;-64
2021/06/08 13:04:28;;;;;;;20.30;18.25;;;23.20;1.00;;;;;;6158885;23;20024;-63
2021/06/08 13:07:20;;;;;;;22.63;18.42;;;23.00;1.00;;;;;;6203681;23;20083;-65
2021/06/08 13:10:10;;;;;;;20.23;17.45;;;23.30;1.00;;;;;;6202477;23;20457;-64
2021/06/08 13:13:06;;;;;;;20.63;17.77;;;23.40;1.00;;;;;;6181604;23;20078;-64
2021/06/08 13:15:54;;;;;;;21.08;18.90;;;23.30;1.00;;;;;;6196195;23;20505;-65
2021/06/08 13:18:44;;;;;;;20.40;17.80;;;23.30;1.00;;;;;;6205220;23;20457;-65
2021/06/08 13:21:33;;;;;;;19.08;17.17;;;23.90;1.00;;;;;;6204780;23;20012;-65
2021/06/08 13:24:23;;;;;;;20.10;18.02;;;23.30;1.00;;;;;;6182027;23;20422;-64
2021/06/08 13:27:14;;;;;;;19.27;17.38;;;23.20;1.00;;;;;;6204940;23;20347;-64
2021/06/08 13:30:05;;;;;;;21.75;19.55;;;22.80;1.30;;;;;;6184822;23;20118;-65
2021/06/08 13:32:58;;;;;;;19.77;17.33;;;23.00;1.00;;;;;;6160598;23;20020;-66
2021/06/08 13:35:52;;;;;;;19.52;17.58;;;23.60;1.00;;;;;;6172688;23;20127;-65
2021/06/08 13:38:40;;;;;;;19.53;17.53;;;23.70;1.00;;;;;;6206227;23;20021;-67
2021/06/08 13:41:32;;;;;;;19.58;17.48;;;23.70;1.00;;;;;;6182179;23;20099;-66
2021/06/08 13:44:21;;;;;;;18.80;17.00;;;23.70;1.00;;;;;;6203271;23;20028;-65
2021/06/08 13:47:15;;;;;;;20.30;18.15;;;23.70;1.00;;;;;;6184378;23;20039;-66
2021/06/08 13:50:05;;;;;;;19.40;17.50;;;24.20;1.00;;;;;;6183266;23;20029;-66
2021/06/08 13:53:03;;;;;;;18.58;16.58;;;24.50;1.00;;;;;;6181722;23;20048;-66
2021/06/08 13:55:59;;;;;;;19.42;17.50;;;23.90;1.00;;;;;;6195903;23;20465;-65
2021/06/08 14:01:54;;;;;;;18.60;16.42;;;23.10;1.00;;;;;;6198535;23;20047;-65
2021/06/08 14:04:46;;;;;;;18.55;16.75;;;24.50;1.00;;;;;;6196240;23;20020;-66
2021/06/08 14:07:34;;;;;;;18.15;16.33;;;24.50;1.00;;;;;;6204394;23;20078;-66
2021/06/08 14:10:24;;;;;;;19.50;17.48;;;24.00;1.00;;;;;;6202179;23;20103;-65
2021/06/08 14:13:11;;;;;;;18.08;16.25;;;24.50;1.00;;;;;;6181570;23;20123;-65
2021/06/08 14:16:00;;;;;;;19.48;16.58;;;24.50;1.00;;;;;;6173208;23;20134;-67
2021/06/08 14:18:48;;;;;;;17.58;15.70;;;24.20;1.00;;;;;;6205288;23;20031;-66
2021/06/08 14:21:38;;;;;;;17.20;15.55;;;24.30;1.00;;;;;;6202131;23;20139;-66
2021/06/08 14:24:26;;;;;;;17.33;15.60;;;24.70;1.00;;;;;;6202495;23;20401;-66
2021/06/08 14:27:17;;;;;;;19.75;15.52;;;24.70;1.00;;;;;;6161379;23;20109;-65
2021/06/08 14:30:07;;;;;;;19.00;15.57;;;25.70;1.00;;;;;;6181924;23;20466;-65
2021/06/08 14:32:57;;;;;;;17.10;15.50;;;25.20;1.00;;;;;;6180182;23;20024;-66
2021/06/08 14:35:45;;;;;;;17.63;15.93;;;24.50;1.00;;;;;;6171335;23;20031;-67